Decoded Metar for KFDK (FREDERICK in MD, USA) (IATA:FDK) | Meteo·Mobile Aviation Weather
aviador You're here:

KFDK Decoded Metar

FREDERICK in MD, USA
Report Time2019-05-19 22:47:00
UTC Time2019-05-19 23:36:57
Flight Rules vfr VFR
Wind200° at 15 Gusting to 20 kt
W.Decomp.*RWY 23: 13.9 kt HW 5.6 kt LCW
RWY 12: 0.5 kt HW 15.0 kt RCW
Visibility9999 m
Phenomena:N/A
Clouds:N/A
Expected CloudBase > 5,200 ft AGL from Temp-Dew spread
CeilingNone
Temp31°C (ISA +17)
Dew Point18°C (46% RH)
Heat Index31.9°C
AAT28.4°C
QNH1012 hPa
Density Alt2,507 ft
Elevation302 ft
Report Wrong Elevation
Raw Report
KFDK 192247Z 20015G20KT 10SM SKC 31/18 A2987=

Extra information for KFDK:More info

Metar Taf Metar & Taf Last 4 Metars F.Rules Stats Wind Profile Meteogram Temp Stats Airport Information Weather charts Add Link Nearby VenuesMetar ALERT Operation Metar Decoded Social comments

AIRNAV info for KFDK